sensor_id;sensor_type;location;lat;lon;timestamp;P1;durP1;ratioP1;P2;durP2;ratioP2
5460;SDS011;2753;49.196;8.286;2023-08-21T00:01:03;6.90;;;5.20;;
5460;SDS011;2753;49.196;8.286;2023-08-21T00:03:29;12.10;;;5.70;;
5460;SDS011;2753;49.196;8.286;2023-08-21T00:05:55;6.37;;;5.77;;
5460;SDS011;2753;49.196;8.286;2023-08-21T00:08:20;11.47;;;5.20;;
5460;SDS011;2753;49.196;8.286;2023-08-21T00:10:46;8.53;;;6.03;;
5460;SDS011;2753;49.196;8.286;2023-08-21T00:13:12;9.30;;;5.40;;
5460;SDS011;2753;49.196;8.286;2023-08-21T00:15:38;13.27;;;5.93;;
5460;SDS011;2753;49.196;8.286;2023-08-21T00:18:05;8.37;;;5.90;;
5460;SDS011;2753;49.196;8.286;2023-08-21T00:20:31;15.47;;;6.10;;
5460;SDS011;2753;49.196;8.286;2023-08-21T00:22:57;6.07;;;5.27;;
5460;SDS011;2753;49.196;8.286;2023-08-21T00:25:23;5.90;;;4.83;;
5460;SDS011;2753;49.196;8.286;2023-08-21T00:27:48;7.43;;;5.00;;
5460;SDS011;2753;49.196;8.286;2023-08-21T00:30:14;6.93;;;5.87;;
5460;SDS011;2753;49.196;8.286;2023-08-21T00:32:40;5.57;;;5.17;;
5460;SDS011;2753;49.196;8.286;2023-08-21T00:35:07;6.20;;;5.60;;
5460;SDS011;2753;49.196;8.286;2023-08-21T00:37:33;7.57;;;5.27;;
5460;SDS011;2753;49.196;8.286;2023-08-21T00:39:58;9.70;;;6.00;;
5460;SDS011;2753;49.196;8.286;2023-08-21T00:42:24;13.80;;;5.53;;
5460;SDS011;2753;49.196;8.286;2023-08-21T00:44:51;7.63;;;5.80;;
5460;SDS011;2753;49.196;8.286;2023-08-21T00:47:16;6.80;;;6.07;;
5460;SDS011;2753;49.196;8.286;2023-08-21T00:49:42;6.70;;;5.73;;
5460;SDS011;2753;49.196;8.286;2023-08-21T00:52:08;8.87;;;5.30;;
5460;SDS011;2753;49.196;8.286;2023-08-21T00:54:37;5.87;;;5.27;;
5460;SDS011;2753;49.196;8.286;2023-08-21T00:57:03;10.40;;;6.73;;
5460;SDS011;2753;49.196;8.286;2023-08-21T00:59:32;6.07;;;5.47;;
5460;SDS011;2753;49.196;8.286;2023-08-21T01:01:58;6.77;;;5.40;;
5460;SDS011;2753;49.196;8.286;2023-08-21T01:04:24;5.83;;;5.23;;
5460;SDS011;2753;49.196;8.286;2023-08-21T01:06:50;8.53;;;5.53;;
5460;SDS011;2753;49.196;8.286;2023-08-21T01:17:08;7.53;;;4.97;;
5460;SDS011;2753;49.196;8.286;2023-08-21T01:19:40;12.87;;;5.47;;
5460;SDS011;2753;49.196;8.286;2023-08-21T01:22:07;8.23;;;6.17;;
5460;SDS011;2753;49.196;8.286;2023-08-21T01:24:33;12.27;;;6.93;;
5460;SDS011;2753;49.196;8.286;2023-08-21T01:26:59;8.63;;;7.00;;
5460;SDS011;2753;49.196;8.286;2023-08-21T01:29:25;9.10;;;5.53;;
5460;SDS011;2753;49.196;8.286;2023-08-21T01:32:43;5.73;;;5.17;;
5460;SDS011;2753;49.196;8.286;2023-08-21T01:34:55;6.70;;;5.57;;
5460;SDS011;2753;49.196;8.286;2023-08-21T01:37:22;7.70;;;5.80;;
5460;SDS011;2753;49.196;8.286;2023-08-21T01:39:51;7.30;;;6.20;;
5460;SDS011;2753;49.196;8.286;2023-08-21T01:42:18;6.33;;;5.60;;
5460;SDS011;2753;49.196;8.286;2023-08-21T01:44:44;7.87;;;5.60;;
5460;SDS011;2753;49.196;8.286;2023-08-21T01:47:11;7.93;;;5.73;;
5460;SDS011;2753;49.196;8.286;2023-08-21T01:49:37;11.33;;;6.73;;
5460;SDS011;2753;49.196;8.286;2023-08-21T01:52:03;10.07;;;5.90;;
5460;SDS011;2753;49.196;8.286;2023-08-21T01:54:29;7.87;;;6.20;;
5460;SDS011;2753;49.196;8.286;2023-08-21T01:56:54;9.83;;;6.23;;
5460;SDS011;2753;49.196;8.286;2023-08-21T01:59:21;10.10;;;6.53;;
5460;SDS011;2753;49.196;8.286;2023-08-21T02:01:48;6.00;;;5.43;;
5460;SDS011;2753;49.196;8.286;2023-08-21T02:04:13;7.27;;;5.70;;
5460;SDS011;2753;49.196;8.286;2023-08-21T02:06:39;10.87;;;5.77;;
5460;SDS011;2753;49.196;8.286;2023-08-21T02:09:04;7.03;;;6.13;;
5460;SDS011;2753;49.196;8.286;2023-08-21T02:11:30;9.03;;;6.10;;
5460;SDS011;2753;49.196;8.286;2023-08-21T02:13:56;8.03;;;6.43;;
5460;SDS011;2753;49.196;8.286;2023-08-21T02:16:22;8.40;;;6.20;;
5460;SDS011;2753;49.196;8.286;2023-08-21T02:18:48;7.07;;;6.27;;
5460;SDS011;2753;49.196;8.286;2023-08-21T02:21:13;10.93;;;6.60;;
5460;SDS011;2753;49.196;8.286;2023-08-21T02:23:39;14.20;;;6.80;;
5460;SDS011;2753;49.196;8.286;2023-08-21T02:26:05;10.00;;;6.63;;
5460;SDS011;2753;49.196;8.286;2023-08-21T02:28:31;8.27;;;5.40;;
5460;SDS011;2753;49.196;8.286;2023-08-21T02:30:57;11.20;;;6.70;;
5460;SDS011;2753;49.196;8.286;2023-08-21T02:33:23;7.87;;;5.63;;
5460;SDS011;2753;49.196;8.286;2023-08-21T02:35:49;7.10;;;6.37;;
5460;SDS011;2753;49.196;8.286;2023-08-21T02:38:14;10.37;;;6.40;;
5460;SDS011;2753;49.196;8.286;2023-08-21T02:40:40;7.60;;;6.03;;
5460;SDS011;2753;49.196;8.286;2023-08-21T02:43:06;7.40;;;6.10;;
5460;SDS011;2753;49.196;8.286;2023-08-21T02:45:31;9.30;;;6.50;;
5460;SDS011;2753;49.196;8.286;2023-08-21T02:47:57;8.30;;;5.77;;
5460;SDS011;2753;49.196;8.286;2023-08-21T02:50:23;6.43;;;5.90;;
5460;SDS011;2753;49.196;8.286;2023-08-21T02:52:48;8.97;;;6.37;;
5460;SDS011;2753;49.196;8.286;2023-08-21T02:55:14;8.20;;;6.03;;
5460;SDS011;2753;49.196;8.286;2023-08-21T02:57:40;8.63;;;6.10;;
5460;SDS011;2753;49.196;8.286;2023-08-21T03:00:06;9.00;;;7.03;;
5460;SDS011;2753;49.196;8.286;2023-08-21T03:02:33;18.50;;;6.70;;
5460;SDS011;2753;49.196;8.286;2023-08-21T03:04:59;11.53;;;6.50;;
5460;SDS011;2753;49.196;8.286;2023-08-21T03:07:25;8.70;;;6.00;;
5460;SDS011;2753;49.196;8.286;2023-08-21T03:09:51;6.90;;;6.13;;
5460;SDS011;2753;49.196;8.286;2023-08-21T03:12:16;10.80;;;6.50;;
5460;SDS011;2753;49.196;8.286;2023-08-21T03:14:42;14.30;;;5.90;;
5460;SDS011;2753;49.196;8.286;2023-08-21T03:17:08;12.93;;;6.37;;
5460;SDS011;2753;49.196;8.286;2023-08-21T03:19:34;7.57;;;6.00;;
5460;SDS011;2753;49.196;8.286;2023-08-21T03:22:00;11.63;;;6.10;;
5460;SDS011;2753;49.196;8.286;2023-08-21T03:24:25;12.40;;;7.77;;
5460;SDS011;2753;49.196;8.286;2023-08-21T03:26:51;8.57;;;5.83;;
5460;SDS011;2753;49.196;8.286;2023-08-21T03:29:16;8.00;;;7.07;;
5460;SDS011;2753;49.196;8.286;2023-08-21T03:31:42;9.37;;;6.93;;
5460;SDS011;2753;49.196;8.286;2023-08-21T03:34:08;14.83;;;7.27;;
5460;SDS011;2753;49.196;8.286;2023-08-21T03:36:34;9.83;;;7.00;;
5460;SDS011;2753;49.196;8.286;2023-08-21T03:39:02;9.73;;;7.03;;
5460;SDS011;2753;49.196;8.286;2023-08-21T03:41:31;10.33;;;7.50;;
5460;SDS011;2753;49.196;8.286;2023-08-21T03:43:56;12.13;;;7.33;;
5460;SDS011;2753;49.196;8.286;2023-08-21T03:46:22;12.80;;;7.87;;
5460;SDS011;2753;49.196;8.286;2023-08-21T03:48:48;12.73;;;6.93;;
5460;SDS011;2753;49.196;8.286;2023-08-21T03:51:15;11.93;;;6.87;;
5460;SDS011;2753;49.196;8.286;2023-08-21T03:53:42;10.50;;;7.17;;
5460;SDS011;2753;49.196;8.286;2023-08-21T03:56:07;7.23;;;6.00;;
5460;SDS011;2753;49.196;8.286;2023-08-21T03:58:33;8.77;;;7.10;;
5460;SDS011;2753;49.196;8.286;2023-08-21T04:00:59;11.00;;;6.63;;
5460;SDS011;2753;49.196;8.286;2023-08-21T04:03:25;13.10;;;7.10;;
5460;SDS011;2753;49.196;8.286;2023-08-21T04:05:52;6.73;;;6.03;;
5460;SDS011;2753;49.196;8.286;2023-08-21T04:08:19;17.30;;;7.97;;
5460;SDS011;2753;49.196;8.286;2023-08-21T04:10:45;8.10;;;7.30;;
5460;SDS011;2753;49.196;8.286;2023-08-21T04:13:10;13.20;;;6.60;;
5460;SDS011;2753;49.196;8.286;2023-08-21T04:15:36;7.60;;;6.90;;
5460;SDS011;2753;49.196;8.286;2023-08-21T04:18:02;11.53;;;7.47;;
5460;SDS011;2753;49.196;8.286;2023-08-21T04:20:28;10.40;;;7.63;;
5460;SDS011;2753;49.196;8.286;2023-08-21T04:22:54;9.80;;;7.63;;
5460;SDS011;2753;49.196;8.286;2023-08-21T04:25:20;14.10;;;7.57;;
5460;SDS011;2753;49.196;8.286;2023-08-21T04:27:45;14.57;;;7.50;;
5460;SDS011;2753;49.196;8.286;2023-08-21T04:30:11;10.23;;;7.00;;
5460;SDS011;2753;49.196;8.286;2023-08-21T04:32:37;13.37;;;7.20;;
5460;SDS011;2753;49.196;8.286;2023-08-21T04:35:03;8.63;;;7.33;;
5460;SDS011;2753;49.196;8.286;2023-08-21T04:37:30;8.70;;;7.87;;
5460;SDS011;2753;49.196;8.286;2023-08-21T04:39:57;12.40;;;7.23;;
5460;SDS011;2753;49.196;8.286;2023-08-21T04:42:22;9.13;;;6.83;;
5460;SDS011;2753;49.196;8.286;2023-08-21T04:44:48;9.87;;;7.10;;
5460;SDS011;2753;49.196;8.286;2023-08-21T04:47:24;11.93;;;7.70;;
5460;SDS011;2753;49.196;8.286;2023-08-21T04:49:51;9.87;;;7.30;;
5460;SDS011;2753;49.196;8.286;2023-08-21T04:52:18;10.80;;;7.83;;
5460;SDS011;2753;49.196;8.286;2023-08-21T04:54:45;9.83;;;7.30;;
5460;SDS011;2753;49.196;8.286;2023-08-21T04:57:11;10.23;;;7.50;;
5460;SDS011;2753;49.196;8.286;2023-08-21T04:59:37;8.33;;;7.53;;
5460;SDS011;2753;49.196;8.286;2023-08-21T05:02:03;14.33;;;7.70;;
5460;SDS011;2753;49.196;8.286;2023-08-21T05:04:29;8.60;;;7.80;;
5460;SDS011;2753;49.196;8.286;2023-08-21T05:06:54;14.33;;;8.20;;
5460;SDS011;2753;49.196;8.286;2023-08-21T05:09:20;9.63;;;8.20;;
5460;SDS011;2753;49.196;8.286;2023-08-21T05:11:46;8.13;;;7.33;;
5460;SDS011;2753;49.196;8.286;2023-08-21T05:14:11;9.33;;;7.83;;
5460;SDS011;2753;49.196;8.286;2023-08-21T05:16:37;14.13;;;8.53;;
5460;SDS011;2753;49.196;8.286;2023-08-21T05:19:03;8.70;;;7.97;;
5460;SDS011;2753;49.196;8.286;2023-08-21T05:21:28;14.90;;;8.17;;
5460;SDS011;2753;49.196;8.286;2023-08-21T05:23:54;14.70;;;8.87;;
5460;SDS011;2753;49.196;8.286;2023-08-21T05:26:20;9.30;;;8.30;;
5460;SDS011;2753;49.196;8.286;2023-08-21T05:28:46;9.77;;;8.73;;
5460;SDS011;2753;49.196;8.286;2023-08-21T05:31:12;8.13;;;7.27;;
5460;SDS011;2753;49.196;8.286;2023-08-21T05:33:37;9.00;;;8.10;;
5460;SDS011;2753;49.196;8.286;2023-08-21T05:36:04;13.70;;;8.50;;
5460;SDS011;2753;49.196;8.286;2023-08-21T05:38:30;12.33;;;8.53;;
5460;SDS011;2753;49.196;8.286;2023-08-21T05:40:56;16.63;;;7.80;;
5460;SDS011;2753;49.196;8.286;2023-08-21T05:43:23;14.90;;;9.03;;
5460;SDS011;2753;49.196;8.286;2023-08-21T05:45:49;10.23;;;8.20;;
5460;SDS011;2753;49.196;8.286;2023-08-21T05:48:15;8.23;;;7.20;;
5460;SDS011;2753;49.196;8.286;2023-08-21T05:50:41;13.97;;;9.03;;
5460;SDS011;2753;49.196;8.286;2023-08-21T05:53:08;12.43;;;8.87;;
5460;SDS011;2753;49.196;8.286;2023-08-21T05:55:34;9.37;;;8.40;;
5460;SDS011;2753;49.196;8.286;2023-08-21T05:58:02;12.73;;;8.60;;
5460;SDS011;2753;49.196;8.286;2023-08-21T06:00:28;17.03;;;7.80;;
5460;SDS011;2753;49.196;8.286;2023-08-21T06:02:54;9.30;;;8.33;;
5460;SDS011;2753;49.196;8.286;2023-08-21T06:05:20;13.17;;;8.37;;
5460;SDS011;2753;49.196;8.286;2023-08-21T06:07:45;13.90;;;8.90;;
5460;SDS011;2753;49.196;8.286;2023-08-21T06:10:11;13.67;;;9.00;;
5460;SDS011;2753;49.196;8.286;2023-08-21T06:12:40;9.03;;;8.23;;
5460;SDS011;2753;49.196;8.286;2023-08-21T06:15:07;12.47;;;8.73;;
5460;SDS011;2753;49.196;8.286;2023-08-21T06:17:36;12.07;;;8.50;;
5460;SDS011;2753;49.196;8.286;2023-08-21T06:20:02;17.43;;;10.10;;
5460;SDS011;2753;49.196;8.286;2023-08-21T06:22:31;15.03;;;7.90;;
5460;SDS011;2753;49.196;8.286;2023-08-21T06:24:57;10.77;;;9.30;;
5460;SDS011;2753;49.196;8.286;2023-08-21T06:27:22;20.20;;;9.77;;
5460;SDS011;2753;49.196;8.286;2023-08-21T06:29:48;17.20;;;8.70;;
5460;SDS011;2753;49.196;8.286;2023-08-21T06:32:14;8.77;;;7.33;;
5460;SDS011;2753;49.196;8.286;2023-08-21T06:34:39;10.20;;;8.10;;
5460;SDS011;2753;49.196;8.286;2023-08-21T06:37:05;9.40;;;8.40;;
5460;SDS011;2753;49.196;8.286;2023-08-21T06:39:31;10.37;;;8.40;;
5460;SDS011;2753;49.196;8.286;2023-08-21T06:41:57;9.00;;;7.87;;
5460;SDS011;2753;49.196;8.286;2023-08-21T06:44:23;9.80;;;7.17;;
5460;SDS011;2753;49.196;8.286;2023-08-21T06:46:49;9.47;;;7.93;;
5460;SDS011;2753;49.196;8.286;2023-08-21T06:49:14;13.97;;;8.30;;
5460;SDS011;2753;49.196;8.286;2023-08-21T06:51:40;14.93;;;7.53;;
5460;SDS011;2753;49.196;8.286;2023-08-21T06:54:06;8.73;;;7.90;;
5460;SDS011;2753;49.196;8.286;2023-08-21T06:56:32;11.23;;;8.00;;
5460;SDS011;2753;49.196;8.286;2023-08-21T06:58:57;10.43;;;7.43;;
5460;SDS011;2753;49.196;8.286;2023-08-21T07:01:23;9.70;;;7.53;;
5460;SDS011;2753;49.196;8.286;2023-08-21T07:03:49;10.10;;;7.40;;
5460;SDS011;2753;49.196;8.286;2023-08-21T07:06:14;13.37;;;7.47;;
5460;SDS011;2753;49.196;8.286;2023-08-21T07:08:40;14.63;;;8.30;;
5460;SDS011;2753;49.196;8.286;2023-08-21T07:11:07;10.70;;;7.20;;
5460;SDS011;2753;49.196;8.286;2023-08-21T07:13:37;8.60;;;7.70;;
5460;SDS011;2753;49.196;8.286;2023-08-21T07:16:02;9.67;;;7.40;;
5460;SDS011;2753;49.196;8.286;2023-08-21T07:18:31;9.40;;;7.77;;
5460;SDS011;2753;49.196;8.286;2023-08-21T07:20:58;9.50;;;7.30;;
5460;SDS011;2753;49.196;8.286;2023-08-21T07:23:24;8.80;;;7.03;;
5460;SDS011;2753;49.196;8.286;2023-08-21T07:25:49;11.23;;;7.27;;
5460;SDS011;2753;49.196;8.286;2023-08-21T07:28:16;10.83;;;7.70;;
5460;SDS011;2753;49.196;8.286;2023-08-21T07:30:41;13.00;;;7.73;;
5460;SDS011;2753;49.196;8.286;2023-08-21T07:33:07;8.10;;;7.40;;
5460;SDS011;2753;49.196;8.286;2023-08-21T07:35:33;10.00;;;7.90;;
5460;SDS011;2753;49.196;8.286;2023-08-21T07:37:58;11.50;;;8.40;;
5460;SDS011;2753;49.196;8.286;2023-08-21T07:40:24;9.90;;;7.77;;
5460;SDS011;2753;49.196;8.286;2023-08-21T07:42:50;9.30;;;7.40;;
5460;SDS011;2753;49.196;8.286;2023-08-21T07:45:16;9.67;;;7.70;;
5460;SDS011;2753;49.196;8.286;2023-08-21T07:47:42;8.17;;;7.10;;
5460;SDS011;2753;49.196;8.286;2023-08-21T07:50:08;9.97;;;7.13;;
5460;SDS011;2753;49.196;8.286;2023-08-21T07:52:34;11.30;;;6.90;;
5460;SDS011;2753;49.196;8.286;2023-08-21T07:55:01;9.10;;;6.80;;
5460;SDS011;2753;49.196;8.286;2023-08-21T07:57:28;8.83;;;7.33;;
5460;SDS011;2753;49.196;8.286;2023-08-21T07:59:54;14.23;;;7.73;;
5460;SDS011;2753;49.196;8.286;2023-08-21T08:02:20;13.40;;;7.90;;
5460;SDS011;2753;49.196;8.286;2023-08-21T08:04:46;11.80;;;7.40;;
5460;SDS011;2753;49.196;8.286;2023-08-21T08:07:12;12.30;;;6.83;;
5460;SDS011;2753;49.196;8.286;2023-08-21T08:09:38;14.93;;;8.10;;
5460;SDS011;2753;49.196;8.286;2023-08-21T08:12:04;16.60;;;7.40;;
5460;SDS011;2753;49.196;8.286;2023-08-21T08:14:31;10.40;;;7.97;;
5460;SDS011;2753;49.196;8.286;2023-08-21T08:16:57;9.00;;;7.20;;
5460;SDS011;2753;49.196;8.286;2023-08-21T08:19:22;8.00;;;7.20;;
5460;SDS011;2753;49.196;8.286;2023-08-21T08:21:48;12.20;;;8.03;;
5460;SDS011;2753;49.196;8.286;2023-08-21T08:24:14;12.33;;;6.97;;
5460;SDS011;2753;49.196;8.286;2023-08-21T08:26:39;7.53;;;6.90;;
5460;SDS011;2753;49.196;8.286;2023-08-21T08:29:07;9.60;;;7.87;;
5460;SDS011;2753;49.196;8.286;2023-08-21T08:31:33;10.40;;;7.30;;
5460;SDS011;2753;49.196;8.286;2023-08-21T08:33:58;8.60;;;6.73;;
5460;SDS011;2753;49.196;8.286;2023-08-21T08:36:24;16.10;;;7.00;;
5460;SDS011;2753;49.196;8.286;2023-08-21T08:38:50;10.13;;;7.47;;
5460;SDS011;2753;49.196;8.286;2023-08-21T08:41:24;13.53;;;7.17;;
5460;SDS011;2753;49.196;8.286;2023-08-21T08:43:58;11.13;;;6.23;;
5460;SDS011;2753;49.196;8.286;2023-08-21T08:46:26;11.87;;;7.67;;
5460;SDS011;2753;49.196;8.286;2023-08-21T08:48:54;8.23;;;6.67;;
5460;SDS011;2753;49.196;8.286;2023-08-21T08:51:21;9.43;;;6.80;;
5460;SDS011;2753;49.196;8.286;2023-08-21T08:53:50;7.40;;;6.70;;
5460;SDS011;2753;49.196;8.286;2023-08-21T08:56:16;8.10;;;7.13;;
5460;SDS011;2753;49.196;8.286;2023-08-21T08:58:42;7.57;;;6.50;;
5460;SDS011;2753;49.196;8.286;2023-08-21T09:01:08;12.37;;;6.57;;
5460;SDS011;2753;49.196;8.286;2023-08-21T09:03:35;8.57;;;7.10;;
5460;SDS011;2753;49.196;8.286;2023-08-21T09:06:01;7.00;;;6.00;;
5460;SDS011;2753;49.196;8.286;2023-08-21T09:08:29;7.70;;;6.73;;
5460;SDS011;2753;49.196;8.286;2023-08-21T09:10:54;7.50;;;6.70;;
5460;SDS011;2753;49.196;8.286;2023-08-21T09:13:20;8.33;;;7.53;;
5460;SDS011;2753;49.196;8.286;2023-08-21T09:15:47;11.17;;;7.07;;
5460;SDS011;2753;49.196;8.286;2023-08-21T09:18:18;7.47;;;6.50;;
5460;SDS011;2753;49.196;8.286;2023-08-21T09:20:43;8.83;;;6.60;;
5460;SDS011;2753;49.196;8.286;2023-08-21T09:23:13;7.90;;;6.43;;
5460;SDS011;2753;49.196;8.286;2023-08-21T09:25:46;9.40;;;6.70;;
5460;SDS011;2753;49.196;8.286;2023-08-21T09:28:13;24.97;;;7.60;;
5460;SDS011;2753;49.196;8.286;2023-08-21T09:30:47;9.90;;;6.50;;
5460;SDS011;2753;49.196;8.286;2023-08-21T09:33:16;12.73;;;6.67;;
5460;SDS011;2753;49.196;8.286;2023-08-21T09:35:44;15.20;;;6.50;;
5460;SDS011;2753;49.196;8.286;2023-08-21T09:38:10;6.00;;;5.40;;
5460;SDS011;2753;49.196;8.286;2023-08-21T09:40:39;13.17;;;6.17;;
5460;SDS011;2753;49.196;8.286;2023-08-21T09:43:07;9.70;;;6.90;;
5460;SDS011;2753;49.196;8.286;2023-08-21T09:45:35;8.40;;;5.97;;
5460;SDS011;2753;49.196;8.286;2023-08-21T09:48:00;13.50;;;5.83;;
5460;SDS011;2753;49.196;8.286;2023-08-21T09:50:29;6.23;;;5.60;;
5460;SDS011;2753;49.196;8.286;2023-08-21T09:52:55;8.10;;;6.57;;
5460;SDS011;2753;49.196;8.286;2023-08-21T09:55:21;7.80;;;6.70;;
5460;SDS011;2753;49.196;8.286;2023-08-21T09:57:48;9.17;;;7.40;;
5460;SDS011;2753;49.196;8.286;2023-08-21T10:00:23;6.53;;;6.00;;
5460;SDS011;2753;49.196;8.286;2023-08-21T10:02:51;11.00;;;6.70;;
5460;SDS011;2753;49.196;8.286;2023-08-21T10:05:18;11.93;;;6.57;;
5460;SDS011;2753;49.196;8.286;2023-08-21T10:07:49;11.80;;;6.20;;
5460;SDS011;2753;49.196;8.286;2023-08-21T10:10:16;9.30;;;6.50;;
5460;SDS011;2753;49.196;8.286;2023-08-21T10:12:42;8.67;;;6.13;;
5460;SDS011;2753;49.196;8.286;2023-08-21T10:15:08;8.50;;;6.40;;
5460;SDS011;2753;49.196;8.286;2023-08-21T10:17:35;13.13;;;6.30;;
5460;SDS011;2753;49.196;8.286;2023-08-21T10:20:05;7.27;;;6.43;;
5460;SDS011;2753;49.196;8.286;2023-08-21T10:22:45;9.83;;;6.83;;
5460;SDS011;2753;49.196;8.286;2023-08-21T10:25:23;8.83;;;6.83;;
5460;SDS011;2753;49.196;8.286;2023-08-21T10:27:54;8.27;;;6.40;;
5460;SDS011;2753;49.196;8.286;2023-08-21T10:30:23;14.97;;;7.00;;
5460;SDS011;2753;49.196;8.286;2023-08-21T10:32:51;8.17;;;6.30;;
5460;SDS011;2753;49.196;8.286;2023-08-21T10:35:20;8.63;;;6.40;;
5460;SDS011;2753;49.196;8.286;2023-08-21T10:40:36;12.00;;;6.53;;
5460;SDS011;2753;49.196;8.286;2023-08-21T10:43:03;11.70;;;6.80;;
5460;SDS011;2753;49.196;8.286;2023-08-21T10:45:29;8.73;;;6.33;;
5460;SDS011;2753;49.196;8.286;2023-08-21T10:47:59;6.20;;;5.70;;
5460;SDS011;2753;49.196;8.286;2023-08-21T10:50:25;12.53;;;6.30;;
5460;SDS011;2753;49.196;8.286;2023-08-21T10:52:51;11.20;;;6.73;;
5460;SDS011;2753;49.196;8.286;2023-08-21T10:55:18;13.10;;;6.30;;
5460;SDS011;2753;49.196;8.286;2023-08-21T10:57:45;10.20;;;6.33;;
5460;SDS011;2753;49.196;8.286;2023-08-21T11:00:13;7.33;;;6.43;;
5460;SDS011;2753;49.196;8.286;2023-08-21T11:02:47;7.37;;;6.00;;
5460;SDS011;2753;49.196;8.286;2023-08-21T11:05:14;5.90;;;5.27;;
5460;SDS011;2753;49.196;8.286;2023-08-21T11:07:42;7.23;;;5.83;;
5460;SDS011;2753;49.196;8.286;2023-08-21T11:10:13;12.17;;;6.47;;
5460;SDS011;2753;49.196;8.286;2023-08-21T11:12:52;8.00;;;5.93;;
5460;SDS011;2753;49.196;8.286;2023-08-21T11:15:20;9.00;;;6.50;;
5460;SDS011;2753;49.196;8.286;2023-08-21T11:18:00;8.47;;;6.23;;
5460;SDS011;2753;49.196;8.286;2023-08-21T11:20:30;11.93;;;6.63;;
5460;SDS011;2753;49.196;8.286;2023-08-21T11:23:00;6.73;;;6.00;;
5460;SDS011;2753;49.196;8.286;2023-08-21T11:25:33;7.33;;;5.77;;
5460;SDS011;2753;49.196;8.286;2023-08-21T11:28:00;8.33;;;5.70;;
5460;SDS011;2753;49.196;8.286;2023-08-21T11:30:32;10.10;;;5.30;;
5460;SDS011;2753;49.196;8.286;2023-08-21T11:33:05;9.60;;;5.67;;
5460;SDS011;2753;49.196;8.286;2023-08-21T11:35:31;9.50;;;5.63;;
5460;SDS011;2753;49.196;8.286;2023-08-21T11:37:57;7.33;;;6.60;;
5460;SDS011;2753;49.196;8.286;2023-08-21T11:40:23;8.10;;;5.37;;
5460;SDS011;2753;49.196;8.286;2023-08-21T11:42:51;11.20;;;5.77;;
5460;SDS011;2753;49.196;8.286;2023-08-21T11:45:19;16.97;;;5.27;;
5460;SDS011;2753;49.196;8.286;2023-08-21T11:47:46;8.93;;;6.10;;
5460;SDS011;2753;49.196;8.286;2023-08-21T11:50:12;9.20;;;6.40;;
5460;SDS011;2753;49.196;8.286;2023-08-21T11:52:40;7.80;;;5.53;;
5460;SDS011;2753;49.196;8.286;2023-08-21T11:55:08;4.80;;;4.43;;
5460;SDS011;2753;49.196;8.286;2023-08-21T11:57:35;11.87;;;6.30;;
5460;SDS011;2753;49.196;8.286;2023-08-21T12:00:14;7.33;;;5.83;;
5460;SDS011;2753;49.196;8.286;2023-08-21T12:02:49;10.80;;;5.63;;
5460;SDS011;2753;49.196;8.286;2023-08-21T12:05:25;7.10;;;5.27;;
5460;SDS011;2753;49.196;8.286;2023-08-21T12:07:55;6.40;;;5.60;;
5460;SDS011;2753;49.196;8.286;2023-08-21T12:10:27;6.63;;;5.00;;
5460;SDS011;2753;49.196;8.286;2023-08-21T12:12:54;9.33;;;5.73;;
5460;SDS011;2753;49.196;8.286;2023-08-21T12:15:20;8.67;;;5.40;;
5460;SDS011;2753;49.196;8.286;2023-08-21T12:17:46;7.00;;;4.87;;
5460;SDS011;2753;49.196;8.286;2023-08-21T12:20:12;4.53;;;3.90;;
5460;SDS011;2753;49.196;8.286;2023-08-21T12:22:38;4.40;;;3.37;;
5460;SDS011;2753;49.196;8.286;2023-08-21T12:25:04;9.70;;;4.10;;
5460;SDS011;2753;49.196;8.286;2023-08-21T12:27:31;5.50;;;3.90;;
5460;SDS011;2753;49.196;8.286;2023-08-21T12:29:56;3.73;;;3.40;;
5460;SDS011;2753;49.196;8.286;2023-08-21T12:32:22;13.07;;;4.20;;
5460;SDS011;2753;49.196;8.286;2023-08-21T12:34:48;6.30;;;4.20;;
5460;SDS011;2753;49.196;8.286;2023-08-21T12:37:13;6.90;;;3.63;;
5460;SDS011;2753;49.196;8.286;2023-08-21T12:39:39;4.03;;;3.73;;
5460;SDS011;2753;49.196;8.286;2023-08-21T12:42:05;10.50;;;4.00;;
5460;SDS011;2753;49.196;8.286;2023-08-21T12:44:32;3.93;;;3.60;;
5460;SDS011;2753;49.196;8.286;2023-08-21T12:46:59;7.17;;;3.70;;
5460;SDS011;2753;49.196;8.286;2023-08-21T12:49:24;7.50;;;4.00;;
5460;SDS011;2753;49.196;8.286;2023-08-21T12:51:50;6.60;;;4.50;;
5460;SDS011;2753;49.196;8.286;2023-08-21T12:54:16;7.20;;;4.50;;
5460;SDS011;2753;49.196;8.286;2023-08-21T12:56:41;7.20;;;4.03;;
5460;SDS011;2753;49.196;8.286;2023-08-21T12:59:07;11.20;;;4.30;;
5460;SDS011;2753;49.196;8.286;2023-08-21T13:01:33;5.20;;;4.47;;
5460;SDS011;2753;49.196;8.286;2023-08-21T13:04:00;4.60;;;4.17;;
5460;SDS011;2753;49.196;8.286;2023-08-21T13:06:26;5.30;;;4.33;;
5460;SDS011;2753;49.196;8.286;2023-08-21T13:08:52;4.70;;;4.13;;
5460;SDS011;2753;49.196;8.286;2023-08-21T13:11:19;8.43;;;4.10;;
5460;SDS011;2753;49.196;8.286;2023-08-21T13:13:44;11.70;;;4.37;;
5460;SDS011;2753;49.196;8.286;2023-08-21T13:16:10;3.90;;;3.60;;
5460;SDS011;2753;49.196;8.286;2023-08-21T13:18:36;6.23;;;4.00;;
5460;SDS011;2753;49.196;8.286;2023-08-21T13:21:02;9.37;;;4.07;;
5460;SDS011;2753;49.196;8.286;2023-08-21T13:23:28;6.23;;;3.47;;
5460;SDS011;2753;49.196;8.286;2023-08-21T13:25:54;4.60;;;4.17;;
5460;SDS011;2753;49.196;8.286;2023-08-21T13:28:20;9.90;;;4.37;;
5460;SDS011;2753;49.196;8.286;2023-08-21T13:30:45;5.03;;;3.60;;
5460;SDS011;2753;49.196;8.286;2023-08-21T13:33:11;6.03;;;4.03;;
5460;SDS011;2753;49.196;8.286;2023-08-21T13:35:38;5.43;;;3.90;;
5460;SDS011;2753;49.196;8.286;2023-08-21T13:38:04;9.17;;;4.50;;
5460;SDS011;2753;49.196;8.286;2023-08-21T13:40:30;8.40;;;4.77;;
5460;SDS011;2753;49.196;8.286;2023-08-21T13:42:56;4.60;;;4.20;;
5460;SDS011;2753;49.196;8.286;2023-08-21T13:45:23;5.70;;;3.73;;
5460;SDS011;2753;49.196;8.286;2023-08-21T13:47:49;11.53;;;4.10;;
5460;SDS011;2753;49.196;8.286;2023-08-21T13:50:15;4.30;;;3.73;;
5460;SDS011;2753;49.196;8.286;2023-08-21T13:52:42;5.37;;;4.00;;
5460;SDS011;2753;49.196;8.286;2023-08-21T13:55:09;6.87;;;4.30;;
5460;SDS011;2753;49.196;8.286;2023-08-21T13:57:38;8.83;;;3.80;;
5460;SDS011;2753;49.196;8.286;2023-08-21T14:00:05;4.90;;;4.07;;
5460;SDS011;2753;49.196;8.286;2023-08-21T14:02:33;8.30;;;3.97;;
5460;SDS011;2753;49.196;8.286;2023-08-21T14:05:00;4.60;;;4.20;;
5460;SDS011;2753;49.196;8.286;2023-08-21T14:07:26;7.50;;;5.00;;
5460;SDS011;2753;49.196;8.286;2023-08-21T14:09:52;6.10;;;3.90;;
5460;SDS011;2753;49.196;8.286;2023-08-21T14:12:18;8.40;;;4.13;;
5460;SDS011;2753;49.196;8.286;2023-08-21T14:14:44;7.07;;;4.13;;
5460;SDS011;2753;49.196;8.286;2023-08-21T14:17:09;4.23;;;3.93;;
5460;SDS011;2753;49.196;8.286;2023-08-21T14:19:35;4.87;;;3.90;;
5460;SDS011;2753;49.196;8.286;2023-08-21T14:22:01;5.40;;;3.60;;
5460;SDS011;2753;49.196;8.286;2023-08-21T14:24:28;4.17;;;3.60;;
5460;SDS011;2753;49.196;8.286;2023-08-21T14:26:54;11.10;;;4.30;;
5460;SDS011;2753;49.196;8.286;2023-08-21T14:29:19;4.30;;;3.90;;
5460;SDS011;2753;49.196;8.286;2023-08-21T14:31:45;10.40;;;4.07;;
5460;SDS011;2753;49.196;8.286;2023-08-21T14:34:12;11.33;;;4.27;;
5460;SDS011;2753;49.196;8.286;2023-08-21T14:36:39;8.83;;;4.60;;
5460;SDS011;2753;49.196;8.286;2023-08-21T14:39:05;6.00;;;4.00;;
5460;SDS011;2753;49.196;8.286;2023-08-21T14:41:31;4.67;;;4.27;;
5460;SDS011;2753;49.196;8.286;2023-08-21T14:43:57;13.20;;;4.67;;
5460;SDS011;2753;49.196;8.286;2023-08-21T14:46:22;5.33;;;3.83;;
5460;SDS011;2753;49.196;8.286;2023-08-21T14:48:48;4.40;;;4.10;;
5460;SDS011;2753;49.196;8.286;2023-08-21T14:51:14;10.90;;;4.10;;
5460;SDS011;2753;49.196;8.286;2023-08-21T14:53:39;5.37;;;4.87;;
5460;SDS011;2753;49.196;8.286;2023-08-21T14:56:05;5.03;;;4.30;;
5460;SDS011;2753;49.196;8.286;2023-08-21T14:58:31;4.60;;;4.20;;
5460;SDS011;2753;49.196;8.286;2023-08-21T15:00:56;12.33;;;4.87;;
5460;SDS011;2753;49.196;8.286;2023-08-21T15:03:22;7.50;;;4.13;;
5460;SDS011;2753;49.196;8.286;2023-08-21T15:05:48;9.67;;;5.07;;
5460;SDS011;2753;49.196;8.286;2023-08-21T15:08:13;12.97;;;4.40;;
5460;SDS011;2753;49.196;8.286;2023-08-21T15:10:39;7.17;;;4.40;;
5460;SDS011;2753;49.196;8.286;2023-08-21T15:13:04;4.60;;;4.13;;
5460;SDS011;2753;49.196;8.286;2023-08-21T15:15:30;6.17;;;4.53;;
5460;SDS011;2753;49.196;8.286;2023-08-21T15:17:56;5.17;;;4.13;;